sensor_id;sensor_type;location;lat;lon;timestamp;P1;durP1;ratioP1;P2;durP2;ratioP2
55467;SDS011;41332;42.702;23.200;2023-07-31T00:01:43;2.95;;;2.75;;
55467;SDS011;41332;42.702;23.200;2023-07-31T00:04:09;3.47;;;3.17;;
55467;SDS011;41332;42.702;23.200;2023-07-31T00:06:34;3.00;;;2.80;;
55467;SDS011;41332;42.702;23.200;2023-07-31T00:08:59;4.38;;;3.00;;
55467;SDS011;41332;42.702;23.200;2023-07-31T00:11:25;3.72;;;3.33;;
55467;SDS011;41332;42.702;23.200;2023-07-31T00:13:52;3.33;;;3.05;;
55467;SDS011;41332;42.702;23.200;2023-07-31T00:16:18;3.33;;;2.95;;
55467;SDS011;41332;42.702;23.200;2023-07-31T00:18:44;4.45;;;3.80;;
55467;SDS011;41332;42.702;23.200;2023-07-31T00:21:09;3.70;;;3.50;;
55467;SDS011;41332;42.702;23.200;2023-07-31T00:23:34;4.05;;;3.75;;
55467;SDS011;41332;42.702;23.200;2023-07-31T00:26:00;7.40;;;4.07;;
55467;SDS011;41332;42.702;23.200;2023-07-31T00:28:25;5.18;;;3.83;;
55467;SDS011;41332;42.702;23.200;2023-07-31T00:30:51;4.90;;;4.50;;
55467;SDS011;41332;42.702;23.200;2023-07-31T00:33:17;4.55;;;4.25;;
55467;SDS011;41332;42.702;23.200;2023-07-31T00:35:42;5.72;;;5.22;;
55467;SDS011;41332;42.702;23.200;2023-07-31T00:38:07;5.35;;;4.88;;
55467;SDS011;41332;42.702;23.200;2023-07-31T00:40:36;5.15;;;4.75;;
55467;SDS011;41332;42.702;23.200;2023-07-31T00:43:02;4.97;;;4.60;;
55467;SDS011;41332;42.702;23.200;2023-07-31T00:45:28;6.18;;;5.78;;
55467;SDS011;41332;42.702;23.200;2023-07-31T00:47:54;7.10;;;6.50;;
55467;SDS011;41332;42.702;23.200;2023-07-31T00:50:19;6.18;;;5.57;;
55467;SDS011;41332;42.702;23.200;2023-07-31T00:52:45;7.78;;;7.07;;
55467;SDS011;41332;42.702;23.200;2023-07-31T00:55:10;8.95;;;7.82;;
55467;SDS011;41332;42.702;23.200;2023-07-31T00:57:36;9.50;;;7.80;;
55467;SDS011;41332;42.702;23.200;2023-07-31T01:00:04;9.35;;;8.30;;
55467;SDS011;41332;42.702;23.200;2023-07-31T01:02:30;10.05;;;8.63;;
55467;SDS011;41332;42.702;23.200;2023-07-31T01:04:55;8.75;;;7.85;;
55467;SDS011;41332;42.702;23.200;2023-07-31T01:07:26;9.27;;;8.15;;
55467;SDS011;41332;42.702;23.200;2023-07-31T01:10:11;10.45;;;9.02;;
55467;SDS011;41332;42.702;23.200;2023-07-31T01:12:48;10.65;;;9.02;;
55467;SDS011;41332;42.702;23.200;2023-07-31T01:15:16;10.80;;;9.27;;
55467;SDS011;41332;42.702;23.200;2023-07-31T01:17:42;11.73;;;10.18;;
55467;SDS011;41332;42.702;23.200;2023-07-31T01:20:11;14.48;;;11.18;;
55467;SDS011;41332;42.702;23.200;2023-07-31T01:31:20;16.90;;;13.23;;
55467;SDS011;41332;42.702;23.200;2023-07-31T01:33:48;18.45;;;13.93;;
55467;SDS011;41332;42.702;23.200;2023-07-31T01:36:15;18.42;;;14.45;;
55467;SDS011;41332;42.702;23.200;2023-07-31T01:38:40;20.30;;;14.52;;
55467;SDS011;41332;42.702;23.200;2023-07-31T01:41:06;18.83;;;14.13;;
55467;SDS011;41332;42.702;23.200;2023-07-31T01:43:31;26.70;;;15.05;;
55467;SDS011;41332;42.702;23.200;2023-07-31T01:45:57;19.52;;;16.13;;
55467;SDS011;41332;42.702;23.200;2023-07-31T01:48:22;19.73;;;14.55;;
55467;SDS011;41332;42.702;23.200;2023-07-31T01:50:47;20.30;;;14.40;;
55467;SDS011;41332;42.702;23.200;2023-07-31T01:53:13;19.73;;;14.38;;
55467;SDS011;41332;42.702;23.200;2023-07-31T01:55:38;20.08;;;14.93;;
55467;SDS011;41332;42.702;23.200;2023-07-31T01:58:04;21.02;;;14.38;;
55467;SDS011;41332;42.702;23.200;2023-07-31T02:00:32;20.17;;;15.35;;
55467;SDS011;41332;42.702;23.200;2023-07-31T02:02:58;22.13;;;15.48;;
55467;SDS011;41332;42.702;23.200;2023-07-31T02:05:24;20.48;;;15.25;;
55467;SDS011;41332;42.702;23.200;2023-07-31T02:07:50;24.48;;;16.15;;
55467;SDS011;41332;42.702;23.200;2023-07-31T02:10:16;20.58;;;14.63;;
55467;SDS011;41332;42.702;23.200;2023-07-31T02:12:41;20.85;;;15.60;;
55467;SDS011;41332;42.702;23.200;2023-07-31T02:15:06;23.95;;;15.82;;
55467;SDS011;41332;42.702;23.200;2023-07-31T02:17:32;20.17;;;15.70;;
55467;SDS011;41332;42.702;23.200;2023-07-31T02:19:57;22.80;;;15.25;;
55467;SDS011;41332;42.702;23.200;2023-07-31T02:22:23;19.63;;;15.50;;
55467;SDS011;41332;42.702;23.200;2023-07-31T02:24:48;22.48;;;15.52;;
55467;SDS011;41332;42.702;23.200;2023-07-31T02:27:13;20.75;;;14.38;;
55467;SDS011;41332;42.702;23.200;2023-07-31T02:29:39;18.85;;;15.30;;
55467;SDS011;41332;42.702;23.200;2023-07-31T02:32:04;20.75;;;15.48;;
55467;SDS011;41332;42.702;23.200;2023-07-31T02:34:30;22.45;;;16.63;;
55467;SDS011;41332;42.702;23.200;2023-07-31T02:36:55;19.85;;;14.55;;
55467;SDS011;41332;42.702;23.200;2023-07-31T02:39:21;17.88;;;14.07;;
55467;SDS011;41332;42.702;23.200;2023-07-31T02:41:46;21.02;;;14.95;;
55467;SDS011;41332;42.702;23.200;2023-07-31T02:44:11;18.85;;;14.98;;
55467;SDS011;41332;42.702;23.200;2023-07-31T02:46:39;20.85;;;14.30;;
55467;SDS011;41332;42.702;23.200;2023-07-31T02:49:05;18.63;;;14.15;;
55467;SDS011;41332;42.702;23.200;2023-07-31T02:51:33;20.58;;;16.20;;
55467;SDS011;41332;42.702;23.200;2023-07-31T02:53:58;19.77;;;15.02;;
55467;SDS011;41332;42.702;23.200;2023-07-31T02:56:24;20.85;;;16.33;;
55467;SDS011;41332;42.702;23.200;2023-07-31T02:58:49;17.50;;;15.15;;
55467;SDS011;41332;42.702;23.200;2023-07-31T03:01:14;21.45;;;16.15;;
55467;SDS011;41332;42.702;23.200;2023-07-31T03:03:41;20.63;;;15.23;;
55467;SDS011;41332;42.702;23.200;2023-07-31T03:06:06;18.50;;;14.35;;
55467;SDS011;41332;42.702;23.200;2023-07-31T03:08:32;21.42;;;14.60;;
55467;SDS011;41332;42.702;23.200;2023-07-31T03:10:57;23.42;;;15.82;;
55467;SDS011;41332;42.702;23.200;2023-07-31T03:13:22;19.92;;;14.95;;
55467;SDS011;41332;42.702;23.200;2023-07-31T03:15:48;19.08;;;14.93;;
55467;SDS011;41332;42.702;23.200;2023-07-31T03:18:13;18.50;;;14.35;;
55467;SDS011;41332;42.702;23.200;2023-07-31T03:20:41;18.42;;;13.80;;
55467;SDS011;41332;42.702;23.200;2023-07-31T03:23:08;20.58;;;14.70;;
55467;SDS011;41332;42.702;23.200;2023-07-31T03:25:34;26.92;;;17.02;;
55467;SDS011;41332;42.702;23.200;2023-07-31T03:27:59;20.67;;;15.27;;
55467;SDS011;41332;42.702;23.200;2023-07-31T03:30:24;20.15;;;15.50;;
55467;SDS011;41332;42.702;23.200;2023-07-31T03:32:50;20.25;;;15.02;;
55467;SDS011;41332;42.702;23.200;2023-07-31T03:35:15;24.73;;;15.70;;
55467;SDS011;41332;42.702;23.200;2023-07-31T03:37:40;22.35;;;15.50;;
55467;SDS011;41332;42.702;23.200;2023-07-31T03:40:06;25.92;;;15.43;;
55467;SDS011;41332;42.702;23.200;2023-07-31T03:42:32;22.60;;;16.23;;
55467;SDS011;41332;42.702;23.200;2023-07-31T03:44:57;21.85;;;15.90;;
55467;SDS011;41332;42.702;23.200;2023-07-31T03:47:22;24.38;;;16.77;;
55467;SDS011;41332;42.702;23.200;2023-07-31T03:49:48;25.35;;;17.20;;
55467;SDS011;41332;42.702;23.200;2023-07-31T03:52:13;24.23;;;17.77;;
55467;SDS011;41332;42.702;23.200;2023-07-31T03:54:39;23.95;;;18.85;;
55467;SDS011;41332;42.702;23.200;2023-07-31T03:57:04;27.98;;;17.08;;
55467;SDS011;41332;42.702;23.200;2023-07-31T03:59:30;24.35;;;17.52;;
55467;SDS011;41332;42.702;23.200;2023-07-31T04:01:55;25.55;;;16.42;;
55467;SDS011;41332;42.702;23.200;2023-07-31T04:04:20;22.63;;;17.27;;
55467;SDS011;41332;42.702;23.200;2023-07-31T04:06:46;29.02;;;17.75;;
55467;SDS011;41332;42.702;23.200;2023-07-31T04:09:11;24.80;;;16.55;;
55467;SDS011;41332;42.702;23.200;2023-07-31T04:11:36;22.85;;;15.98;;
55467;SDS011;41332;42.702;23.200;2023-07-31T04:14:02;24.52;;;17.10;;
55467;SDS011;41332;42.702;23.200;2023-07-31T04:16:27;28.02;;;16.88;;
55467;SDS011;41332;42.702;23.200;2023-07-31T04:18:53;24.80;;;17.25;;
55467;SDS011;41332;42.702;23.200;2023-07-31T04:21:18;23.50;;;16.58;;
55467;SDS011;41332;42.702;23.200;2023-07-31T04:23:43;22.90;;;15.50;;
55467;SDS011;41332;42.702;23.200;2023-07-31T04:26:09;23.38;;;15.32;;
55467;SDS011;41332;42.702;23.200;2023-07-31T04:28:34;24.52;;;15.95;;
55467;SDS011;41332;42.702;23.200;2023-07-31T04:30:59;22.70;;;15.23;;
55467;SDS011;41332;42.702;23.200;2023-07-31T04:33:25;24.30;;;15.57;;
55467;SDS011;41332;42.702;23.200;2023-07-31T04:35:53;21.33;;;15.45;;
55467;SDS011;41332;42.702;23.200;2023-07-31T04:38:19;25.25;;;15.85;;
55467;SDS011;41332;42.702;23.200;2023-07-31T04:40:46;23.48;;;17.52;;
55467;SDS011;41332;42.702;23.200;2023-07-31T04:43:12;28.25;;;15.10;;
55467;SDS011;41332;42.702;23.200;2023-07-31T04:45:37;17.85;;;14.52;;
55467;SDS011;41332;42.702;23.200;2023-07-31T04:48:03;22.33;;;16.42;;
55467;SDS011;41332;42.702;23.200;2023-07-31T04:50:28;19.52;;;13.95;;
55467;SDS011;41332;42.702;23.200;2023-07-31T04:52:55;19.40;;;14.40;;
55467;SDS011;41332;42.702;23.200;2023-07-31T04:55:21;21.50;;;14.55;;
55467;SDS011;41332;42.702;23.200;2023-07-31T04:57:46;21.48;;;14.63;;
55467;SDS011;41332;42.702;23.200;2023-07-31T05:00:11;21.00;;;14.55;;
55467;SDS011;41332;42.702;23.200;2023-07-31T05:02:37;18.65;;;13.45;;
55467;SDS011;41332;42.702;23.200;2023-07-31T05:05:02;19.38;;;14.32;;
55467;SDS011;41332;42.702;23.200;2023-07-31T05:07:28;16.00;;;12.60;;
55467;SDS011;41332;42.702;23.200;2023-07-31T05:09:53;16.63;;;12.93;;
55467;SDS011;41332;42.702;23.200;2023-07-31T05:12:18;11.70;;;10.50;;
55467;SDS011;41332;42.702;23.200;2023-07-31T05:14:44;15.40;;;11.15;;
55467;SDS011;41332;42.702;23.200;2023-07-31T05:17:09;13.45;;;10.90;;
55467;SDS011;41332;42.702;23.200;2023-07-31T05:19:34;13.45;;;10.38;;
55467;SDS011;41332;42.702;23.200;2023-07-31T05:22:00;16.17;;;11.25;;
55467;SDS011;41332;42.702;23.200;2023-07-31T05:24:25;12.93;;;10.45;;
55467;SDS011;41332;42.702;23.200;2023-07-31T05:26:50;11.35;;;9.02;;
55467;SDS011;41332;42.702;23.200;2023-07-31T05:29:16;10.68;;;9.30;;
55467;SDS011;41332;42.702;23.200;2023-07-31T05:31:41;8.88;;;7.53;;
55467;SDS011;41332;42.702;23.200;2023-07-31T05:34:07;8.63;;;7.70;;
55467;SDS011;41332;42.702;23.200;2023-07-31T05:36:32;8.20;;;7.22;;
55467;SDS011;41332;42.702;23.200;2023-07-31T05:38:57;7.60;;;6.90;;
55467;SDS011;41332;42.702;23.200;2023-07-31T05:41:23;7.28;;;6.65;;
55467;SDS011;41332;42.702;23.200;2023-07-31T05:43:48;7.53;;;6.47;;
55467;SDS011;41332;42.702;23.200;2023-07-31T05:46:13;7.57;;;6.88;;
55467;SDS011;41332;42.702;23.200;2023-07-31T05:48:39;6.70;;;6.03;;
55467;SDS011;41332;42.702;23.200;2023-07-31T05:51:04;6.10;;;5.03;;
55467;SDS011;41332;42.702;23.200;2023-07-31T05:53:30;6.70;;;5.40;;
55467;SDS011;41332;42.702;23.200;2023-07-31T05:55:55;5.57;;;5.00;;
55467;SDS011;41332;42.702;23.200;2023-07-31T05:58:21;4.38;;;4.07;;
55467;SDS011;41332;42.702;23.200;2023-07-31T06:00:46;5.00;;;4.57;;
55467;SDS011;41332;42.702;23.200;2023-07-31T06:03:12;4.57;;;4.18;;
55467;SDS011;41332;42.702;23.200;2023-07-31T06:05:37;4.25;;;3.85;;
55467;SDS011;41332;42.702;23.200;2023-07-31T06:08:05;4.03;;;3.72;;
55467;SDS011;41332;42.702;23.200;2023-07-31T06:10:31;4.07;;;3.78;;
55467;SDS011;41332;42.702;23.200;2023-07-31T06:12:56;4.20;;;3.90;;
55467;SDS011;41332;42.702;23.200;2023-07-31T06:15:22;5.05;;;4.15;;
55467;SDS011;41332;42.702;23.200;2023-07-31T06:17:47;4.38;;;3.97;;
55467;SDS011;41332;42.702;23.200;2023-07-31T06:20:13;5.05;;;4.00;;
55467;SDS011;41332;42.702;23.200;2023-07-31T06:22:38;4.80;;;4.05;;
55467;SDS011;41332;42.702;23.200;2023-07-31T06:25:04;3.95;;;3.58;;
55467;SDS011;41332;42.702;23.200;2023-07-31T06:27:29;3.88;;;3.58;;
55467;SDS011;41332;42.702;23.200;2023-07-31T06:29:55;3.83;;;3.45;;
55467;SDS011;41332;42.702;23.200;2023-07-31T06:32:20;3.78;;;2.95;;
55467;SDS011;41332;42.702;23.200;2023-07-31T06:34:45;3.58;;;3.25;;
55467;SDS011;41332;42.702;23.200;2023-07-31T06:37:11;3.78;;;3.47;;
55467;SDS011;41332;42.702;23.200;2023-07-31T06:39:36;7.22;;;3.70;;
55467;SDS011;41332;42.702;23.200;2023-07-31T06:42:02;3.67;;;3.17;;
55467;SDS011;41332;42.702;23.200;2023-07-31T06:44:28;3.25;;;3.05;;
55467;SDS011;41332;42.702;23.200;2023-07-31T06:46:54;2.97;;;2.63;;
55467;SDS011;41332;42.702;23.200;2023-07-31T06:49:20;2.90;;;2.70;;
55467;SDS011;41332;42.702;23.200;2023-07-31T06:51:45;2.80;;;2.60;;
55467;SDS011;41332;42.702;23.200;2023-07-31T06:54:10;2.53;;;2.33;;
55467;SDS011;41332;42.702;23.200;2023-07-31T06:56:36;2.70;;;2.40;;
55467;SDS011;41332;42.702;23.200;2023-07-31T06:59:01;2.67;;;2.47;;
55467;SDS011;41332;42.702;23.200;2023-07-31T07:01:27;3.40;;;3.13;;
55467;SDS011;41332;42.702;23.200;2023-07-31T07:03:53;3.22;;;2.28;;
55467;SDS011;41332;42.702;23.200;2023-07-31T07:06:19;5.90;;;2.67;;
55467;SDS011;41332;42.702;23.200;2023-07-31T07:08:44;2.13;;;2.03;;
55467;SDS011;41332;42.702;23.200;2023-07-31T07:11:10;4.10;;;2.08;;
55467;SDS011;41332;42.702;23.200;2023-07-31T07:13:35;2.67;;;2.47;;
55467;SDS011;41332;42.702;23.200;2023-07-31T07:16:01;2.83;;;2.63;;
55467;SDS011;41332;42.702;23.200;2023-07-31T07:18:26;3.25;;;2.53;;
55467;SDS011;41332;42.702;23.200;2023-07-31T07:20:52;2.85;;;2.10;;
55467;SDS011;41332;42.702;23.200;2023-07-31T07:23:19;2.45;;;2.08;;
55467;SDS011;41332;42.702;23.200;2023-07-31T07:25:46;2.35;;;2.22;;
55467;SDS011;41332;42.702;23.200;2023-07-31T07:28:11;2.07;;;1.97;;
55467;SDS011;41332;42.702;23.200;2023-07-31T07:30:37;4.80;;;2.20;;
55467;SDS011;41332;42.702;23.200;2023-07-31T07:33:02;2.15;;;2.03;;
55467;SDS011;41332;42.702;23.200;2023-07-31T07:35:28;2.58;;;1.83;;
55467;SDS011;41332;42.702;23.200;2023-07-31T07:37:54;2.45;;;2.35;;
55467;SDS011;41332;42.702;23.200;2023-07-31T07:40:20;2.63;;;2.43;;
55467;SDS011;41332;42.702;23.200;2023-07-31T07:42:45;1.97;;;1.87;;
55467;SDS011;41332;42.702;23.200;2023-07-31T07:45:11;5.27;;;2.20;;
55467;SDS011;41332;42.702;23.200;2023-07-31T07:47:37;2.03;;;1.90;;
55467;SDS011;41332;42.702;23.200;2023-07-31T07:50:04;2.25;;;2.05;;
55467;SDS011;41332;42.702;23.200;2023-07-31T07:52:30;2.63;;;2.40;;
55467;SDS011;41332;42.702;23.200;2023-07-31T07:54:55;1.83;;;1.73;;
55467;SDS011;41332;42.702;23.200;2023-07-31T07:57:20;1.80;;;1.70;;
55467;SDS011;41332;42.702;23.200;2023-07-31T07:59:46;1.90;;;1.80;;
55467;SDS011;41332;42.702;23.200;2023-07-31T08:02:11;2.10;;;2.00;;
55467;SDS011;41332;42.702;23.200;2023-07-31T08:04:37;2.00;;;1.90;;
55467;SDS011;41332;42.702;23.200;2023-07-31T08:07:02;2.63;;;2.23;;
55467;SDS011;41332;42.702;23.200;2023-07-31T08:09:28;2.30;;;2.10;;
55467;SDS011;41332;42.702;23.200;2023-07-31T08:11:53;2.07;;;1.87;;
55467;SDS011;41332;42.702;23.200;2023-07-31T08:14:19;1.50;;;1.40;;
55467;SDS011;41332;42.702;23.200;2023-07-31T08:16:44;2.10;;;2.00;;
55467;SDS011;41332;42.702;23.200;2023-07-31T08:19:10;1.80;;;1.70;;
55467;SDS011;41332;42.702;23.200;2023-07-31T08:21:36;2.07;;;1.97;;
55467;SDS011;41332;42.702;23.200;2023-07-31T08:24:01;1.90;;;1.80;;
55467;SDS011;41332;42.702;23.200;2023-07-31T08:26:27;2.23;;;1.77;;
55467;SDS011;41332;42.702;23.200;2023-07-31T08:28:52;2.40;;;2.30;;
55467;SDS011;41332;42.702;23.200;2023-07-31T08:31:18;2.20;;;2.00;;
55467;SDS011;41332;42.702;23.200;2023-07-31T08:33:44;2.13;;;1.92;;
55467;SDS011;41332;42.702;23.200;2023-07-31T08:36:09;1.93;;;1.83;;
55467;SDS011;41332;42.702;23.200;2023-07-31T08:38:35;1.50;;;1.40;;
55467;SDS011;41332;42.702;23.200;2023-07-31T08:41:00;1.90;;;1.80;;
55467;SDS011;41332;42.702;23.200;2023-07-31T08:43:27;2.03;;;1.92;;
55467;SDS011;41332;42.702;23.200;2023-07-31T08:45:53;1.70;;;1.60;;
55467;SDS011;41332;42.702;23.200;2023-07-31T08:48:21;3.77;;;1.90;;
55467;SDS011;41332;42.702;23.200;2023-07-31T08:50:48;2.15;;;1.92;;
55467;SDS011;41332;42.702;23.200;2023-07-31T08:53:13;2.00;;;1.90;;
55467;SDS011;41332;42.702;23.200;2023-07-31T08:55:39;2.53;;;1.80;;
55467;SDS011;41332;42.702;23.200;2023-07-31T08:58:07;2.28;;;1.85;;
55467;SDS011;41332;42.702;23.200;2023-07-31T09:00:33;1.93;;;1.83;;
55467;SDS011;41332;42.702;23.200;2023-07-31T09:03:00;1.63;;;1.43;;
55467;SDS011;41332;42.702;23.200;2023-07-31T09:05:28;4.93;;;1.85;;
55467;SDS011;41332;42.702;23.200;2023-07-31T09:07:56;2.03;;;1.90;;
55467;SDS011;41332;42.702;23.200;2023-07-31T09:10:22;2.00;;;1.88;;
55467;SDS011;41332;42.702;23.200;2023-07-31T09:12:48;2.00;;;1.90;;
55467;SDS011;41332;42.702;23.200;2023-07-31T09:15:16;2.42;;;2.10;;
55467;SDS011;41332;42.702;23.200;2023-07-31T09:17:42;2.53;;;2.33;;
55467;SDS011;41332;42.702;23.200;2023-07-31T09:22:43;1.65;;;1.55;;
55467;SDS011;41332;42.702;23.200;2023-07-31T09:25:16;4.18;;;2.13;;
55467;SDS011;41332;42.702;23.200;2023-07-31T09:30:19;3.20;;;2.22;;
55467;SDS011;41332;42.702;23.200;2023-07-31T09:32:46;1.70;;;1.60;;
55467;SDS011;41332;42.702;23.200;2023-07-31T09:35:27;4.00;;;2.30;;
55467;SDS011;41332;42.702;23.200;2023-07-31T09:38:01;1.80;;;1.70;;
55467;SDS011;41332;42.702;23.200;2023-07-31T09:40:31;2.10;;;1.90;;
55467;SDS011;41332;42.702;23.200;2023-07-31T09:42:59;3.10;;;2.30;;
55467;SDS011;41332;42.702;23.200;2023-07-31T09:45:25;1.63;;;1.52;;
55467;SDS011;41332;42.702;23.200;2023-07-31T09:47:51;1.70;;;1.60;;
55467;SDS011;41332;42.702;23.200;2023-07-31T09:50:17;1.42;;;1.35;;
55467;SDS011;41332;42.702;23.200;2023-07-31T09:52:45;1.42;;;1.33;;
55467;SDS011;41332;42.702;23.200;2023-07-31T09:55:10;1.80;;;1.70;;
55467;SDS011;41332;42.702;23.200;2023-07-31T09:57:43;3.17;;;1.70;;
55467;SDS011;41332;42.702;23.200;2023-07-31T10:00:11;1.95;;;1.15;;
55467;SDS011;41332;42.702;23.200;2023-07-31T10:05:04;1.55;;;1.45;;
55467;SDS011;41332;42.702;23.200;2023-07-31T10:07:31;1.67;;;1.50;;
55467;SDS011;41332;42.702;23.200;2023-07-31T10:10:02;1.20;;;1.20;;
55467;SDS011;41332;42.702;23.200;2023-07-31T10:12:29;2.17;;;1.48;;
55467;SDS011;41332;42.702;23.200;2023-07-31T10:14:57;2.33;;;1.38;;
55467;SDS011;41332;42.702;23.200;2023-07-31T10:17:25;1.45;;;1.35;;
55467;SDS011;41332;42.702;23.200;2023-07-31T10:19:51;1.52;;;1.42;;
55467;SDS011;41332;42.702;23.200;2023-07-31T10:22:18;1.60;;;1.30;;
55467;SDS011;41332;42.702;23.200;2023-07-31T10:24:45;1.40;;;1.30;;
55467;SDS011;41332;42.702;23.200;2023-07-31T10:27:11;1.70;;;1.60;;
55467;SDS011;41332;42.702;23.200;2023-07-31T10:29:40;1.27;;;1.20;;
55467;SDS011;41332;42.702;23.200;2023-07-31T10:32:08;2.58;;;1.95;;
55467;SDS011;41332;42.702;23.200;2023-07-31T10:34:36;1.40;;;1.30;;
55467;SDS011;41332;42.702;23.200;2023-07-31T10:39:58;1.77;;;1.23;;
55467;SDS011;41332;42.702;23.200;2023-07-31T10:42:35;1.20;;;1.20;;
55467;SDS011;41332;42.702;23.200;2023-07-31T10:45:06;1.05;;;1.02;;
55467;SDS011;41332;42.702;23.200;2023-07-31T10:47:38;4.47;;;1.27;;
55467;SDS011;41332;42.702;23.200;2023-07-31T10:50:11;2.80;;;0.95;;
55467;SDS011;41332;42.702;23.200;2023-07-31T10:52:53;1.27;;;1.05;;
55467;SDS011;41332;42.702;23.200;2023-07-31T10:58:08;1.30;;;1.20;;
55467;SDS011;41332;42.702;23.200;2023-07-31T11:00:36;1.42;;;1.33;;
55467;SDS011;41332;42.702;23.200;2023-07-31T11:03:04;1.70;;;1.40;;
55467;SDS011;41332;42.702;23.200;2023-07-31T11:05:41;1.35;;;1.25;;
55467;SDS011;41332;42.702;23.200;2023-07-31T11:08:11;1.17;;;1.17;;
55467;SDS011;41332;42.702;23.200;2023-07-31T11:10:37;1.35;;;1.25;;
55467;SDS011;41332;42.702;23.200;2023-07-31T11:13:03;1.00;;;1.00;;
55467;SDS011;41332;42.702;23.200;2023-07-31T11:15:30;1.48;;;1.38;;
55467;SDS011;41332;42.702;23.200;2023-07-31T11:17:55;4.63;;;1.20;;
55467;SDS011;41332;42.702;23.200;2023-07-31T11:20:23;2.15;;;1.30;;
55467;SDS011;41332;42.702;23.200;2023-07-31T11:22:49;1.83;;;1.70;;
55467;SDS011;41332;42.702;23.200;2023-07-31T11:25:14;1.80;;;1.70;;
55467;SDS011;41332;42.702;23.200;2023-07-31T11:27:41;2.65;;;1.92;;
55467;SDS011;41332;42.702;23.200;2023-07-31T11:30:08;2.03;;;1.92;;
55467;SDS011;41332;42.702;23.200;2023-07-31T11:32:36;2.30;;;1.90;;
55467;SDS011;41332;42.702;23.200;2023-07-31T11:35:02;1.92;;;1.83;;
55467;SDS011;41332;42.702;23.200;2023-07-31T11:37:41;1.98;;;1.88;;
55467;SDS011;41332;42.702;23.200;2023-07-31T11:40:08;2.13;;;2.03;;
55467;SDS011;41332;42.702;23.200;2023-07-31T11:42:34;1.80;;;1.70;;
55467;SDS011;41332;42.702;23.200;2023-07-31T11:45:03;2.20;;;2.10;;
55467;SDS011;41332;42.702;23.200;2023-07-31T11:47:35;2.65;;;2.13;;
55467;SDS011;41332;42.702;23.200;2023-07-31T11:50:02;3.70;;;2.33;;
55467;SDS011;41332;42.702;23.200;2023-07-31T11:52:32;3.00;;;2.80;;
55467;SDS011;41332;42.702;23.200;2023-07-31T11:55:02;4.65;;;3.00;;
55467;SDS011;41332;42.702;23.200;2023-07-31T11:57:28;3.78;;;3.58;;
55467;SDS011;41332;42.702;23.200;2023-07-31T11:59:54;3.33;;;3.10;;
55467;SDS011;41332;42.702;23.200;2023-07-31T12:02:20;5.57;;;4.57;;
55467;SDS011;41332;42.702;23.200;2023-07-31T12:04:46;4.82;;;4.47;;
55467;SDS011;41332;42.702;23.200;2023-07-31T12:07:13;5.35;;;4.95;;
55467;SDS011;41332;42.702;23.200;2023-07-31T12:09:38;5.00;;;4.60;;
55467;SDS011;41332;42.702;23.200;2023-07-31T12:12:18;5.07;;;4.78;;
55467;SDS011;41332;42.702;23.200;2023-07-31T12:14:45;5.05;;;4.70;;
55467;SDS011;41332;42.702;23.200;2023-07-31T12:17:11;5.87;;;3.33;;
55467;SDS011;41332;42.702;23.200;2023-07-31T12:19:36;5.87;;;3.57;;
55467;SDS011;41332;42.702;23.200;2023-07-31T12:22:10;4.95;;;4.35;;
55467;SDS011;41332;42.702;23.200;2023-07-31T12:24:40;4.15;;;3.95;;
55467;SDS011;41332;42.702;23.200;2023-07-31T12:27:12;4.32;;;3.92;;
55467;SDS011;41332;42.702;23.200;2023-07-31T12:29:40;4.28;;;3.88;;
55467;SDS011;41332;42.702;23.200;2023-07-31T12:32:24;5.15;;;3.67;;
55467;SDS011;41332;42.702;23.200;2023-07-31T12:34:50;4.30;;;4.10;;
55467;SDS011;41332;42.702;23.200;2023-07-31T12:37:16;5.18;;;4.75;;
55467;SDS011;41332;42.702;23.200;2023-07-31T12:39:42;5.70;;;5.23;;
55467;SDS011;41332;42.702;23.200;2023-07-31T12:42:07;4.90;;;4.40;;
55467;SDS011;41332;42.702;23.200;2023-07-31T12:44:32;6.07;;;4.53;;
55467;SDS011;41332;42.702;23.200;2023-07-31T12:46:58;5.93;;;5.43;;
55467;SDS011;41332;42.702;23.200;2023-07-31T12:49:23;5.20;;;4.80;;
55467;SDS011;41332;42.702;23.200;2023-07-31T12:51:49;5.37;;;4.90;;
55467;SDS011;41332;42.702;23.200;2023-07-31T12:54:14;5.63;;;5.23;;
55467;SDS011;41332;42.702;23.200;2023-07-31T12:56:40;5.97;;;5.43;;
55467;SDS011;41332;42.702;23.200;2023-07-31T12:59:05;5.57;;;5.17;;
55467;SDS011;41332;42.702;23.200;2023-07-31T13:01:31;5.20;;;4.70;;
55467;SDS011;41332;42.702;23.200;2023-07-31T13:03:57;5.25;;;4.85;;
55467;SDS011;41332;42.702;23.200;2023-07-31T13:06:22;5.83;;;5.30;;
55467;SDS011;41332;42.702;23.200;2023-07-31T13:08:48;10.43;;;6.70;;
55467;SDS011;41332;42.702;23.200;2023-07-31T13:11:16;5.80;;;5.17;;
55467;SDS011;41332;42.702;23.200;2023-07-31T13:13:41;3.90;;;3.65;;
55467;SDS011;41332;42.702;23.200;2023-07-31T13:16:06;5.10;;;4.70;;
55467;SDS011;41332;42.702;23.200;2023-07-31T13:18:32;4.30;;;3.60;;
55467;SDS011;41332;42.702;23.200;2023-07-31T13:20:57;3.73;;;3.17;;
55467;SDS011;41332;42.702;23.200;2023-07-31T13:23:22;3.20;;;3.00;;
55467;SDS011;41332;42.702;23.200;2023-07-31T13:25:48;3.20;;;3.00;;
55467;SDS011;41332;42.702;23.200;2023-07-31T13:28:13;4.00;;;3.80;;
55467;SDS011;41332;42.702;23.200;2023-07-31T13:30:39;2.77;;;2.60;;
55467;SDS011;41332;42.702;23.200;2023-07-31T13:33:04;4.33;;;4.03;;
55467;SDS011;41332;42.702;23.200;2023-07-31T13:35:30;3.70;;;3.40;;
55467;SDS011;41332;42.702;23.200;2023-07-31T13:37:56;3.55;;;3.35;;
55467;SDS011;41332;42.702;23.200;2023-07-31T13:40:22;2.90;;;2.70;;
55467;SDS011;41332;42.702;23.200;2023-07-31T13:42:47;3.23;;;3.03;;
55467;SDS011;41332;42.702;23.200;2023-07-31T13:45:13;4.83;;;3.20;;
55467;SDS011;41332;42.702;23.200;2023-07-31T13:47:38;3.33;;;3.10;;
55467;SDS011;41332;42.702;23.200;2023-07-31T13:50:04;3.70;;;3.40;;
55467;SDS011;41332;42.702;23.200;2023-07-31T13:52:30;4.57;;;3.23;;
55467;SDS011;41332;42.702;23.200;2023-07-31T13:54:55;4.03;;;3.73;;
55467;SDS011;41332;42.702;23.200;2023-07-31T13:57:20;4.30;;;3.63;;
55467;SDS011;41332;42.702;23.200;2023-07-31T13:59:46;3.53;;;3.23;;
55467;SDS011;41332;42.702;23.200;2023-07-31T14:02:11;3.70;;;3.37;;
55467;SDS011;41332;42.702;23.200;2023-07-31T14:04:37;3.50;;;3.20;;
55467;SDS011;41332;42.702;23.200;2023-07-31T14:07:02;3.17;;;2.97;;
55467;SDS011;41332;42.702;23.200;2023-07-31T14:09:29;4.95;;;2.95;;
55467;SDS011;41332;42.702;23.200;2023-07-31T14:11:54;3.40;;;3.10;;
55467;SDS011;41332;42.702;23.200;2023-07-31T14:14:20;4.00;;;2.90;;
55467;SDS011;41332;42.702;23.200;2023-07-31T14:16:45;2.93;;;2.73;;
55467;SDS011;41332;42.702;23.200;2023-07-31T14:19:11;2.93;;;2.73;;
55467;SDS011;41332;42.702;23.200;2023-07-31T14:21:36;2.90;;;2.70;;
55467;SDS011;41332;42.702;23.200;2023-07-31T14:24:01;4.83;;;3.37;;
55467;SDS011;41332;42.702;23.200;2023-07-31T14:26:27;3.90;;;3.00;;
55467;SDS011;41332;42.702;23.200;2023-07-31T14:28:52;3.03;;;2.70;;
55467;SDS011;41332;42.702;23.200;2023-07-31T14:31:18;2.80;;;2.60;;
55467;SDS011;41332;42.702;23.200;2023-07-31T14:33:43;2.83;;;2.63;;
55467;SDS011;41332;42.702;23.200;2023-07-31T14:36:08;3.10;;;2.90;;
55467;SDS011;41332;42.702;23.200;2023-07-31T14:38:34;3.73;;;2.77;;
55467;SDS011;41332;42.702;23.200;2023-07-31T14:40:59;3.87;;;3.43;;
55467;SDS011;41332;42.702;23.200;2023-07-31T14:43:25;2.67;;;2.53;;